Hauptseite
METAR-TAF:

METAR-TAF

Flughäfen :

Flugplatz Illesheim

Illesheim, Deutschland

Breite: 49-28N, Länge: 010-23E, Höhe: 325 m

Beobachtung

Neuester Wetterbericht von vor 43 Minuten, um 06:56 UTC
Windstille
Temperatur -4°C
Luftfeuchtigkeit 86%
Luftdruck 1033 hPa
Sichtweite 10 km oder mehr
Himmel klar

METAR: ETIK 010656Z AUTO 00000KT 9999 CLR M04/M06 A3051 RMK AO2 SLP358 T10451059

Zeit: 08:39 (07:39 UTC)

Prognose

Neuester Wetterbericht von vor 35 Minuten, um 07:04 UTC
Gültige Prognose vom 01 um 07 UTC bis 02 um 13 UTC
Wind 9 kt aus Ost
Sichtweite 10 km oder mehr
Himmel klar

TAF: ETIK 010704Z 0107/0213 10009KT 9999 SKC QNH3042INS TX12/0206Z TNM06/0108Z

Wetterbeobachtungen und Prognosen von mehr als 4000 Flughäfen (METAR und TAF Bericht).

Die verfügbaren Stationen werden durch gelbe und rote Markierungen auf der Karte dargestellt.

Führen Sie die Maus auf sie, um den Namen der Station zu sehen.

Darauf klicken, um die Beobachtung von Wetterbeobachtungen und Prognosen zu sehen.

Um die Karte zu ändern : klicken Sie auf den grünen Tasten mit einem schwarzen Kreuz Zum Vergrößern, auf den grünen Button mit einem Gedankenstrich zu verkleinern, oder auf die grünen Pfeile für benachbarte Karten.


METAR-TAF: